sensor_id;sensor_type;location;lat;lon;timestamp;P1;durP1;ratioP1;P2;durP2;ratioP2
13483;SDS011;6814;57.786;12.080;2023-07-13T00:00:36;16.00;;;4.97;;
13483;SDS011;6814;57.786;12.080;2023-07-13T00:03:06;12.80;;;5.13;;
13483;SDS011;6814;57.786;12.080;2023-07-13T00:05:32;10.43;;;5.03;;
13483;SDS011;6814;57.786;12.080;2023-07-13T00:07:59;16.63;;;5.20;;
13483;SDS011;6814;57.786;12.080;2023-07-13T00:10:25;16.23;;;5.87;;
13483;SDS011;6814;57.786;12.080;2023-07-13T00:12:52;12.30;;;4.90;;
13483;SDS011;6814;57.786;12.080;2023-07-13T00:15:21;12.53;;;5.20;;
13483;SDS011;6814;57.786;12.080;2023-07-13T00:17:48;9.83;;;5.37;;
13483;SDS011;6814;57.786;12.080;2023-07-13T00:20:16;9.10;;;4.60;;
13483;SDS011;6814;57.786;12.080;2023-07-13T00:22:43;13.83;;;5.20;;
13483;SDS011;6814;57.786;12.080;2023-07-13T00:25:10;12.50;;;4.70;;
13483;SDS011;6814;57.786;12.080;2023-07-13T00:27:37;11.90;;;5.10;;
13483;SDS011;6814;57.786;12.080;2023-07-13T00:30:04;8.20;;;4.60;;
13483;SDS011;6814;57.786;12.080;2023-07-13T00:32:30;10.43;;;4.87;;
13483;SDS011;6814;57.786;12.080;2023-07-13T00:34:57;14.27;;;4.73;;
13483;SDS011;6814;57.786;12.080;2023-07-13T00:37:26;11.53;;;4.70;;
13483;SDS011;6814;57.786;12.080;2023-07-13T00:39:53;15.63;;;4.87;;
13483;SDS011;6814;57.786;12.080;2023-07-13T00:42:19;11.20;;;5.10;;
13483;SDS011;6814;57.786;12.080;2023-07-13T00:45:03;10.40;;;4.20;;
13483;SDS011;6814;57.786;12.080;2023-07-13T00:47:29;13.07;;;4.60;;
13483;SDS011;6814;57.786;12.080;2023-07-13T00:49:56;8.13;;;3.90;;
13483;SDS011;6814;57.786;12.080;2023-07-13T00:52:22;11.37;;;4.27;;
13483;SDS011;6814;57.786;12.080;2023-07-13T00:54:50;11.13;;;4.27;;
13483;SDS011;6814;57.786;12.080;2023-07-13T00:57:17;6.80;;;4.00;;
13483;SDS011;6814;57.786;12.080;2023-07-13T00:59:46;15.67;;;4.70;;
13483;SDS011;6814;57.786;12.080;2023-07-13T01:02:13;7.73;;;3.70;;
13483;SDS011;6814;57.786;12.080;2023-07-13T01:04:39;10.47;;;4.40;;
13483;SDS011;6814;57.786;12.080;2023-07-13T01:07:09;8.30;;;3.53;;
13483;SDS011;6814;57.786;12.080;2023-07-13T01:09:36;12.87;;;3.90;;
13483;SDS011;6814;57.786;12.080;2023-07-13T01:12:05;9.10;;;3.90;;
13483;SDS011;6814;57.786;12.080;2023-07-13T01:14:32;13.07;;;4.10;;
13483;SDS011;6814;57.786;12.080;2023-07-13T01:16:58;10.53;;;4.37;;
13483;SDS011;6814;57.786;12.080;2023-07-13T01:19:28;12.60;;;4.20;;
13483;SDS011;6814;57.786;12.080;2023-07-13T01:22:02;12.27;;;3.73;;
13483;SDS011;6814;57.786;12.080;2023-07-13T01:24:29;9.80;;;4.10;;
13483;SDS011;6814;57.786;12.080;2023-07-13T01:26:55;10.47;;;4.30;;
13483;SDS011;6814;57.786;12.080;2023-07-13T01:29:22;10.03;;;4.10;;
13483;SDS011;6814;57.786;12.080;2023-07-13T01:31:48;12.10;;;4.30;;
13483;SDS011;6814;57.786;12.080;2023-07-13T01:34:15;12.77;;;4.20;;
13483;SDS011;6814;57.786;12.080;2023-07-13T01:36:42;15.30;;;4.50;;
13483;SDS011;6814;57.786;12.080;2023-07-13T01:39:09;10.13;;;4.17;;
13483;SDS011;6814;57.786;12.080;2023-07-13T01:41:36;10.10;;;4.00;;
13483;SDS011;6814;57.786;12.080;2023-07-13T01:44:02;11.90;;;4.30;;
13483;SDS011;6814;57.786;12.080;2023-07-13T01:46:29;10.33;;;4.33;;
13483;SDS011;6814;57.786;12.080;2023-07-13T01:48:55;10.10;;;4.10;;
13483;SDS011;6814;57.786;12.080;2023-07-13T01:51:22;15.97;;;4.50;;
13483;SDS011;6814;57.786;12.080;2023-07-13T01:53:48;10.77;;;4.03;;
13483;SDS011;6814;57.786;12.080;2023-07-13T01:56:16;10.33;;;4.60;;
13483;SDS011;6814;57.786;12.080;2023-07-13T01:58:42;10.90;;;4.77;;
13483;SDS011;6814;57.786;12.080;2023-07-13T02:01:09;12.97;;;5.37;;
13483;SDS011;6814;57.786;12.080;2023-07-13T02:03:35;14.33;;;5.20;;
13483;SDS011;6814;57.786;12.080;2023-07-13T02:06:02;15.30;;;4.63;;
13483;SDS011;6814;57.786;12.080;2023-07-13T02:08:28;11.50;;;4.73;;
13483;SDS011;6814;57.786;12.080;2023-07-13T02:10:55;12.67;;;4.63;;
13483;SDS011;6814;57.786;12.080;2023-07-13T02:13:22;10.27;;;4.50;;
13483;SDS011;6814;57.786;12.080;2023-07-13T02:15:49;10.43;;;4.73;;
13483;SDS011;6814;57.786;12.080;2023-07-13T02:18:16;7.03;;;4.47;;
13483;SDS011;6814;57.786;12.080;2023-07-13T02:20:42;13.47;;;4.97;;
13483;SDS011;6814;57.786;12.080;2023-07-13T02:23:09;8.97;;;4.13;;
13483;SDS011;6814;57.786;12.080;2023-07-13T02:25:35;11.30;;;4.67;;
13483;SDS011;6814;57.786;12.080;2023-07-13T02:28:02;13.13;;;5.10;;
13483;SDS011;6814;57.786;12.080;2023-07-13T02:30:30;11.23;;;4.50;;
13483;SDS011;6814;57.786;12.080;2023-07-13T02:32:57;11.37;;;4.37;;
13483;SDS011;6814;57.786;12.080;2023-07-13T02:35:23;10.17;;;4.43;;
13483;SDS011;6814;57.786;12.080;2023-07-13T02:37:50;8.10;;;4.43;;
13483;SDS011;6814;57.786;12.080;2023-07-13T02:40:16;10.73;;;4.73;;
13483;SDS011;6814;57.786;12.080;2023-07-13T02:42:43;9.03;;;4.17;;
13483;SDS011;6814;57.786;12.080;2023-07-13T02:45:09;13.00;;;4.93;;
13483;SDS011;6814;57.786;12.080;2023-07-13T02:47:39;10.80;;;4.47;;
13483;SDS011;6814;57.786;12.080;2023-07-13T02:50:06;14.63;;;4.50;;
13483;SDS011;6814;57.786;12.080;2023-07-13T02:52:33;9.17;;;4.43;;
13483;SDS011;6814;57.786;12.080;2023-07-13T02:54:59;10.90;;;4.70;;
13483;SDS011;6814;57.786;12.080;2023-07-13T02:57:25;9.37;;;4.63;;
13483;SDS011;6814;57.786;12.080;2023-07-13T02:59:53;11.10;;;4.90;;
13483;SDS011;6814;57.786;12.080;2023-07-13T03:02:19;10.27;;;4.70;;
13483;SDS011;6814;57.786;12.080;2023-07-13T03:04:47;10.00;;;4.93;;
13483;SDS011;6814;57.786;12.080;2023-07-13T03:07:14;12.23;;;5.00;;
13483;SDS011;6814;57.786;12.080;2023-07-13T03:09:40;11.77;;;4.70;;
13483;SDS011;6814;57.786;12.080;2023-07-13T03:12:07;15.13;;;4.97;;
13483;SDS011;6814;57.786;12.080;2023-07-13T03:14:33;13.63;;;5.20;;
13483;SDS011;6814;57.786;12.080;2023-07-13T03:17:00;12.57;;;5.17;;
13483;SDS011;6814;57.786;12.080;2023-07-13T03:19:27;8.90;;;5.23;;
13483;SDS011;6814;57.786;12.080;2023-07-13T03:21:54;11.53;;;5.27;;
13483;SDS011;6814;57.786;12.080;2023-07-13T03:24:21;15.63;;;5.33;;
13483;SDS011;6814;57.786;12.080;2023-07-13T03:26:50;14.77;;;5.20;;
13483;SDS011;6814;57.786;12.080;2023-07-13T03:29:17;18.67;;;5.30;;
13483;SDS011;6814;57.786;12.080;2023-07-13T03:31:43;14.40;;;5.30;;
13483;SDS011;6814;57.786;12.080;2023-07-13T03:34:10;11.60;;;5.30;;
13483;SDS011;6814;57.786;12.080;2023-07-13T03:36:36;10.97;;;4.93;;
13483;SDS011;6814;57.786;12.080;2023-07-13T03:39:04;9.73;;;5.00;;
13483;SDS011;6814;57.786;12.080;2023-07-13T03:41:33;13.40;;;5.67;;
13483;SDS011;6814;57.786;12.080;2023-07-13T03:43:59;14.30;;;5.40;;
13483;SDS011;6814;57.786;12.080;2023-07-13T03:46:26;13.67;;;5.37;;
13483;SDS011;6814;57.786;12.080;2023-07-13T03:48:53;11.27;;;4.97;;
13483;SDS011;6814;57.786;12.080;2023-07-13T03:51:19;11.77;;;5.37;;
13483;SDS011;6814;57.786;12.080;2023-07-13T03:53:47;15.90;;;5.37;;
13483;SDS011;6814;57.786;12.080;2023-07-13T03:56:15;15.30;;;5.27;;
13483;SDS011;6814;57.786;12.080;2023-07-13T03:58:42;12.80;;;4.87;;
13483;SDS011;6814;57.786;12.080;2023-07-13T04:01:09;18.57;;;5.27;;
13483;SDS011;6814;57.786;12.080;2023-07-13T04:03:36;12.17;;;5.10;;
13483;SDS011;6814;57.786;12.080;2023-07-13T04:06:03;10.50;;;4.90;;
13483;SDS011;6814;57.786;12.080;2023-07-13T04:08:31;14.57;;;6.10;;
13483;SDS011;6814;57.786;12.080;2023-07-13T04:10:58;10.00;;;4.20;;
13483;SDS011;6814;57.786;12.080;2023-07-13T04:13:26;12.83;;;4.23;;
13483;SDS011;6814;57.786;12.080;2023-07-13T04:15:53;12.33;;;3.90;;
13483;SDS011;6814;57.786;12.080;2023-07-13T04:18:19;10.27;;;4.00;;
13483;SDS011;6814;57.786;12.080;2023-07-13T04:20:46;12.27;;;4.10;;
13483;SDS011;6814;57.786;12.080;2023-07-13T04:23:13;12.20;;;4.10;;
13483;SDS011;6814;57.786;12.080;2023-07-13T04:25:43;10.87;;;4.20;;
13483;SDS011;6814;57.786;12.080;2023-07-13T04:28:09;8.87;;;3.83;;
13483;SDS011;6814;57.786;12.080;2023-07-13T04:30:37;15.20;;;4.30;;
13483;SDS011;6814;57.786;12.080;2023-07-13T04:33:03;13.87;;;4.00;;
13483;SDS011;6814;57.786;12.080;2023-07-13T04:35:30;9.63;;;3.87;;
13483;SDS011;6814;57.786;12.080;2023-07-13T04:37:56;11.43;;;3.87;;
13483;SDS011;6814;57.786;12.080;2023-07-13T04:40:23;10.87;;;3.70;;
13483;SDS011;6814;57.786;12.080;2023-07-13T04:42:49;6.13;;;3.23;;
13483;SDS011;6814;57.786;12.080;2023-07-13T04:45:15;10.63;;;3.90;;
13483;SDS011;6814;57.786;12.080;2023-07-13T04:47:43;8.67;;;3.60;;
13483;SDS011;6814;57.786;12.080;2023-07-13T04:50:11;9.30;;;3.30;;
13483;SDS011;6814;57.786;12.080;2023-07-13T04:52:40;9.77;;;3.57;;
13483;SDS011;6814;57.786;12.080;2023-07-13T04:55:07;8.03;;;3.50;;
13483;SDS011;6814;57.786;12.080;2023-07-13T04:57:34;7.57;;;3.30;;
13483;SDS011;6814;57.786;12.080;2023-07-13T05:00:00;9.67;;;4.00;;
13483;SDS011;6814;57.786;12.080;2023-07-13T05:02:32;8.90;;;2.97;;
13483;SDS011;6814;57.786;12.080;2023-07-13T05:05:00;7.97;;;2.97;;
13483;SDS011;6814;57.786;12.080;2023-07-13T05:07:26;10.50;;;3.40;;
13483;SDS011;6814;57.786;12.080;2023-07-13T05:09:53;11.33;;;3.73;;
13483;SDS011;6814;57.786;12.080;2023-07-13T05:12:19;11.07;;;3.43;;
13483;SDS011;6814;57.786;12.080;2023-07-13T05:14:46;7.43;;;3.20;;
13483;SDS011;6814;57.786;12.080;2023-07-13T05:17:14;4.30;;;2.87;;
13483;SDS011;6814;57.786;12.080;2023-07-13T05:19:40;8.03;;;2.87;;
13483;SDS011;6814;57.786;12.080;2023-07-13T05:22:08;5.97;;;2.77;;
13483;SDS011;6814;57.786;12.080;2023-07-13T05:24:34;7.50;;;2.70;;
13483;SDS011;6814;57.786;12.080;2023-07-13T05:27:01;6.13;;;2.90;;
13483;SDS011;6814;57.786;12.080;2023-07-13T05:29:27;7.07;;;2.87;;
13483;SDS011;6814;57.786;12.080;2023-07-13T05:31:54;7.17;;;2.60;;
13483;SDS011;6814;57.786;12.080;2023-07-13T05:34:21;8.03;;;2.87;;
13483;SDS011;6814;57.786;12.080;2023-07-13T05:36:47;9.90;;;3.10;;
13483;SDS011;6814;57.786;12.080;2023-07-13T05:39:15;7.70;;;3.20;;
13483;SDS011;6814;57.786;12.080;2023-07-13T05:41:42;8.00;;;2.90;;
13483;SDS011;6814;57.786;12.080;2023-07-13T05:44:08;14.23;;;3.53;;
13483;SDS011;6814;57.786;12.080;2023-07-13T05:46:35;6.47;;;2.33;;
13483;SDS011;6814;57.786;12.080;2023-07-13T05:49:01;7.60;;;2.80;;
13483;SDS011;6814;57.786;12.080;2023-07-13T05:51:28;8.10;;;2.60;;
13483;SDS011;6814;57.786;12.080;2023-07-13T05:53:54;7.70;;;2.40;;
13483;SDS011;6814;57.786;12.080;2023-07-13T05:56:22;9.53;;;2.87;;
13483;SDS011;6814;57.786;12.080;2023-07-13T05:58:48;7.00;;;2.63;;
13483;SDS011;6814;57.786;12.080;2023-07-13T06:01:15;4.83;;;2.50;;
13483;SDS011;6814;57.786;12.080;2023-07-13T06:03:42;5.50;;;2.30;;
13483;SDS011;6814;57.786;12.080;2023-07-13T06:06:09;6.77;;;2.40;;
13483;SDS011;6814;57.786;12.080;2023-07-13T06:08:36;5.03;;;2.20;;
13483;SDS011;6814;57.786;12.080;2023-07-13T06:11:03;5.57;;;2.23;;
13483;SDS011;6814;57.786;12.080;2023-07-13T06:13:31;4.83;;;2.40;;
13483;SDS011;6814;57.786;12.080;2023-07-13T06:15:58;6.60;;;2.27;;
13483;SDS011;6814;57.786;12.080;2023-07-13T06:18:25;6.63;;;2.00;;
13483;SDS011;6814;57.786;12.080;2023-07-13T06:20:51;6.63;;;2.17;;
13483;SDS011;6814;57.786;12.080;2023-07-13T06:23:18;5.77;;;2.30;;
13483;SDS011;6814;57.786;12.080;2023-07-13T06:25:44;8.63;;;3.20;;
13483;SDS011;6814;57.786;12.080;2023-07-13T06:28:11;6.53;;;2.60;;
13483;SDS011;6814;57.786;12.080;2023-07-13T06:30:41;10.40;;;3.40;;
13483;SDS011;6814;57.786;12.080;2023-07-13T06:33:07;9.10;;;2.87;;
13483;SDS011;6814;57.786;12.080;2023-07-13T06:35:34;9.73;;;3.13;;
13483;SDS011;6814;57.786;12.080;2023-07-13T06:38:00;6.93;;;2.93;;
13483;SDS011;6814;57.786;12.080;2023-07-13T06:40:27;7.77;;;2.80;;
13483;SDS011;6814;57.786;12.080;2023-07-13T06:42:55;6.20;;;2.50;;
13483;SDS011;6814;57.786;12.080;2023-07-13T06:45:22;4.37;;;2.63;;
13483;SDS011;6814;57.786;12.080;2023-07-13T06:47:49;8.20;;;2.97;;
13483;SDS011;6814;57.786;12.080;2023-07-13T06:50:16;11.27;;;3.33;;
13483;SDS011;6814;57.786;12.080;2023-07-13T06:52:42;7.07;;;3.23;;
13483;SDS011;6814;57.786;12.080;2023-07-13T06:55:09;7.90;;;3.27;;
13483;SDS011;6814;57.786;12.080;2023-07-13T06:57:35;5.50;;;3.00;;
13483;SDS011;6814;57.786;12.080;2023-07-13T07:00:02;9.40;;;3.03;;
13483;SDS011;6814;57.786;12.080;2023-07-13T07:02:28;9.10;;;3.33;;
13483;SDS011;6814;57.786;12.080;2023-07-13T07:04:56;9.23;;;3.40;;
13483;SDS011;6814;57.786;12.080;2023-07-13T07:07:23;6.40;;;2.80;;
13483;SDS011;6814;57.786;12.080;2023-07-13T07:09:50;10.53;;;3.10;;
13483;SDS011;6814;57.786;12.080;2023-07-13T07:12:16;8.40;;;3.07;;
13483;SDS011;6814;57.786;12.080;2023-07-13T07:14:42;7.27;;;3.23;;
13483;SDS011;6814;57.786;12.080;2023-07-13T07:17:09;5.60;;;2.70;;
13483;SDS011;6814;57.786;12.080;2023-07-13T07:19:35;6.73;;;3.03;;
13483;SDS011;6814;57.786;12.080;2023-07-13T07:22:03;6.70;;;2.93;;
13483;SDS011;6814;57.786;12.080;2023-07-13T07:24:30;4.83;;;2.30;;
13483;SDS011;6814;57.786;12.080;2023-07-13T07:26:56;7.27;;;2.77;;
13483;SDS011;6814;57.786;12.080;2023-07-13T07:29:22;7.10;;;2.73;;
13483;SDS011;6814;57.786;12.080;2023-07-13T07:31:51;6.57;;;2.57;;
13483;SDS011;6814;57.786;12.080;2023-07-13T07:34:17;10.40;;;2.50;;
13483;SDS011;6814;57.786;12.080;2023-07-13T07:36:44;5.10;;;2.10;;
13483;SDS011;6814;57.786;12.080;2023-07-13T07:39:11;5.33;;;1.80;;
13483;SDS011;6814;57.786;12.080;2023-07-13T07:41:38;2.53;;;1.80;;
13483;SDS011;6814;57.786;12.080;2023-07-13T07:44:04;3.73;;;1.87;;
13483;SDS011;6814;57.786;12.080;2023-07-13T07:46:32;4.13;;;1.80;;
13483;SDS011;6814;57.786;12.080;2023-07-13T07:48:58;5.57;;;2.40;;
13483;SDS011;6814;57.786;12.080;2023-07-13T07:51:25;6.13;;;2.70;;
13483;SDS011;6814;57.786;12.080;2023-07-13T07:53:51;5.60;;;2.13;;
13483;SDS011;6814;57.786;12.080;2023-07-13T07:56:19;5.57;;;2.73;;
13483;SDS011;6814;57.786;12.080;2023-07-13T07:58:46;3.77;;;2.13;;
13483;SDS011;6814;57.786;12.080;2023-07-13T08:01:12;5.87;;;2.20;;
13483;SDS011;6814;57.786;12.080;2023-07-13T08:03:38;3.17;;;1.87;;
13483;SDS011;6814;57.786;12.080;2023-07-13T08:06:05;4.87;;;2.23;;
13483;SDS011;6814;57.786;12.080;2023-07-13T08:08:31;4.53;;;1.93;;
13483;SDS011;6814;57.786;12.080;2023-07-13T08:10:58;5.43;;;1.90;;
13483;SDS011;6814;57.786;12.080;2023-07-13T08:13:29;5.50;;;1.67;;
13483;SDS011;6814;57.786;12.080;2023-07-13T08:15:55;3.90;;;1.73;;
13483;SDS011;6814;57.786;12.080;2023-07-13T08:18:22;4.03;;;1.80;;
13483;SDS011;6814;57.786;12.080;2023-07-13T08:20:48;3.13;;;1.60;;
13483;SDS011;6814;57.786;12.080;2023-07-13T08:23:15;2.53;;;1.70;;
13483;SDS011;6814;57.786;12.080;2023-07-13T08:25:41;3.20;;;1.40;;
13483;SDS011;6814;57.786;12.080;2023-07-13T08:28:08;3.10;;;1.37;;
13483;SDS011;6814;57.786;12.080;2023-07-13T08:30:36;4.00;;;1.67;;
13483;SDS011;6814;57.786;12.080;2023-07-13T08:33:02;2.90;;;1.40;;
13483;SDS011;6814;57.786;12.080;2023-07-13T08:35:29;5.23;;;1.60;;
13483;SDS011;6814;57.786;12.080;2023-07-13T08:37:55;3.53;;;1.70;;
13483;SDS011;6814;57.786;12.080;2023-07-13T08:40:23;4.67;;;1.77;;
13483;SDS011;6814;57.786;12.080;2023-07-13T08:42:53;3.20;;;1.80;;
13483;SDS011;6814;57.786;12.080;2023-07-13T08:45:23;4.10;;;1.60;;
13483;SDS011;6814;57.786;12.080;2023-07-13T08:47:53;3.53;;;1.83;;
13483;SDS011;6814;57.786;12.080;2023-07-13T08:50:21;4.03;;;1.70;;
13483;SDS011;6814;57.786;12.080;2023-07-13T08:52:49;5.23;;;2.03;;
13483;SDS011;6814;57.786;12.080;2023-07-13T08:55:16;5.67;;;1.80;;
13483;SDS011;6814;57.786;12.080;2023-07-13T08:57:44;5.13;;;1.80;;
13483;SDS011;6814;57.786;12.080;2023-07-13T09:00:12;4.33;;;1.80;;
13483;SDS011;6814;57.786;12.080;2023-07-13T09:02:42;5.37;;;1.97;;
13483;SDS011;6814;57.786;12.080;2023-07-13T09:05:12;4.53;;;1.73;;
13483;SDS011;6814;57.786;12.080;2023-07-13T09:07:48;4.53;;;1.90;;
13483;SDS011;6814;57.786;12.080;2023-07-13T09:10:19;4.17;;;1.90;;
13483;SDS011;6814;57.786;12.080;2023-07-13T09:12:51;4.53;;;2.43;;
13483;SDS011;6814;57.786;12.080;2023-07-13T09:15:24;4.03;;;1.80;;
13483;SDS011;6814;57.786;12.080;2023-07-13T09:17:51;6.00;;;1.73;;
13483;SDS011;6814;57.786;12.080;2023-07-13T09:20:23;5.33;;;2.03;;
13483;SDS011;6814;57.786;12.080;2023-07-13T09:22:51;6.03;;;2.10;;
13483;SDS011;6814;57.786;12.080;2023-07-13T09:25:21;4.43;;;2.20;;
13483;SDS011;6814;57.786;12.080;2023-07-13T09:27:49;5.37;;;2.50;;
13483;SDS011;6814;57.786;12.080;2023-07-13T09:30:23;3.33;;;2.17;;
13483;SDS011;6814;57.786;12.080;2023-07-13T09:32:51;6.17;;;2.17;;
13483;SDS011;6814;57.786;12.080;2023-07-13T09:35:22;3.90;;;2.33;;
13483;SDS011;6814;57.786;12.080;2023-07-13T09:37:51;5.00;;;2.10;;
13483;SDS011;6814;57.786;12.080;2023-07-13T09:40:20;3.97;;;1.93;;
13483;SDS011;6814;57.786;12.080;2023-07-13T09:42:48;3.50;;;1.80;;
13483;SDS011;6814;57.786;12.080;2023-07-13T09:45:17;6.00;;;2.03;;
13483;SDS011;6814;57.786;12.080;2023-07-13T09:47:53;3.90;;;1.90;;
13483;SDS011;6814;57.786;12.080;2023-07-13T09:50:24;4.40;;;2.10;;
13483;SDS011;6814;57.786;12.080;2023-07-13T09:52:53;3.43;;;1.77;;
13483;SDS011;6814;57.786;12.080;2023-07-13T09:55:24;4.53;;;1.93;;
13483;SDS011;6814;57.786;12.080;2023-07-13T09:57:51;6.67;;;2.60;;
13483;SDS011;6814;57.786;12.080;2023-07-13T10:00:20;7.40;;;2.40;;
13483;SDS011;6814;57.786;12.080;2023-07-13T10:02:49;6.53;;;2.00;;
13483;SDS011;6814;57.786;12.080;2023-07-13T10:05:23;3.93;;;1.40;;
13483;SDS011;6814;57.786;12.080;2023-07-13T10:07:51;4.13;;;1.53;;
13483;SDS011;6814;57.786;12.080;2023-07-13T10:10:20;8.23;;;1.87;;
13483;SDS011;6814;57.786;12.080;2023-07-13T10:12:47;4.97;;;2.10;;
13483;SDS011;6814;57.786;12.080;2023-07-13T10:15:19;5.27;;;1.67;;
13483;SDS011;6814;57.786;12.080;2023-07-13T10:17:46;7.13;;;1.70;;
13483;SDS011;6814;57.786;12.080;2023-07-13T10:20:13;3.27;;;1.50;;
13483;SDS011;6814;57.786;12.080;2023-07-13T10:22:44;3.60;;;1.70;;
13483;SDS011;6814;57.786;12.080;2023-07-13T10:25:13;3.27;;;1.80;;
13483;SDS011;6814;57.786;12.080;2023-07-13T10:27:42;6.33;;;2.07;;
13483;SDS011;6814;57.786;12.080;2023-07-13T10:30:11;3.40;;;1.60;;
13483;SDS011;6814;57.786;12.080;2023-07-13T10:32:38;5.13;;;1.90;;
13483;SDS011;6814;57.786;12.080;2023-07-13T10:35:05;4.57;;;2.33;;
13483;SDS011;6814;57.786;12.080;2023-07-13T10:37:43;3.87;;;1.80;;
13483;SDS011;6814;57.786;12.080;2023-07-13T10:40:12;5.07;;;2.13;;
13483;SDS011;6814;57.786;12.080;2023-07-13T10:42:42;6.60;;;1.80;;
13483;SDS011;6814;57.786;12.080;2023-07-13T10:45:15;3.83;;;1.70;;
13483;SDS011;6814;57.786;12.080;2023-07-13T10:47:42;4.90;;;2.00;;
13483;SDS011;6814;57.786;12.080;2023-07-13T10:50:11;4.73;;;1.80;;
13483;SDS011;6814;57.786;12.080;2023-07-13T10:52:41;4.47;;;2.20;;
13483;SDS011;6814;57.786;12.080;2023-07-13T10:55:31;4.30;;;2.20;;
13483;SDS011;6814;57.786;12.080;2023-07-13T10:57:59;3.90;;;1.90;;
13483;SDS011;6814;57.786;12.080;2023-07-13T11:00:30;5.17;;;1.90;;
13483;SDS011;6814;57.786;12.080;2023-07-13T11:02:57;3.10;;;1.90;;
13483;SDS011;6814;57.786;12.080;2023-07-13T11:05:26;3.83;;;2.00;;
13483;SDS011;6814;57.786;12.080;2023-07-13T11:07:55;4.07;;;1.60;;
13483;SDS011;6814;57.786;12.080;2023-07-13T11:15:55;2.93;;;1.47;;
13483;SDS011;6814;57.786;12.080;2023-07-13T11:18:22;6.03;;;1.87;;
13483;SDS011;6814;57.786;12.080;2023-07-13T11:20:50;6.23;;;1.87;;
13483;SDS011;6814;57.786;12.080;2023-07-13T11:25:58;3.10;;;1.77;;
13483;SDS011;6814;57.786;12.080;2023-07-13T11:28:26;2.53;;;1.90;;
13483;SDS011;6814;57.786;12.080;2023-07-13T11:31:03;6.30;;;2.00;;
13483;SDS011;6814;57.786;12.080;2023-07-13T11:33:47;6.20;;;1.73;;
13483;SDS011;6814;57.786;12.080;2023-07-13T11:36:16;2.63;;;1.50;;
13483;SDS011;6814;57.786;12.080;2023-07-13T11:38:45;4.10;;;2.10;;
13483;SDS011;6814;57.786;12.080;2023-07-13T11:41:14;3.60;;;1.63;;
13483;SDS011;6814;57.786;12.080;2023-07-13T11:43:42;3.63;;;1.57;;
13483;SDS011;6814;57.786;12.080;2023-07-13T11:46:14;2.30;;;1.40;;
13483;SDS011;6814;57.786;12.080;2023-07-13T11:48:41;3.07;;;1.10;;
13483;SDS011;6814;57.786;12.080;2023-07-13T11:51:09;4.17;;;1.10;;
13483;SDS011;6814;57.786;12.080;2023-07-13T11:53:43;1.97;;;1.13;;
13483;SDS011;6814;57.786;12.080;2023-07-13T11:56:11;3.20;;;1.30;;
13483;SDS011;6814;57.786;12.080;2023-07-13T11:58:37;1.30;;;1.10;;
13483;SDS011;6814;57.786;12.080;2023-07-13T12:01:04;1.60;;;0.80;;
13483;SDS011;6814;57.786;12.080;2023-07-13T12:03:33;3.23;;;1.10;;
13483;SDS011;6814;57.786;12.080;2023-07-13T12:06:01;3.50;;;1.20;;
13483;SDS011;6814;57.786;12.080;2023-07-13T12:08:28;3.43;;;1.40;;
13483;SDS011;6814;57.786;12.080;2023-07-13T12:11:02;4.17;;;1.40;;
13483;SDS011;6814;57.786;12.080;2023-07-13T12:13:35;2.70;;;1.30;;
13483;SDS011;6814;57.786;12.080;2023-07-13T12:16:01;2.47;;;1.37;;
13483;SDS011;6814;57.786;12.080;2023-07-13T12:18:28;3.03;;;1.30;;
13483;SDS011;6814;57.786;12.080;2023-07-13T12:20:58;6.03;;;1.50;;
13483;SDS011;6814;57.786;12.080;2023-07-13T12:23:25;4.70;;;1.20;;
13483;SDS011;6814;57.786;12.080;2023-07-13T12:25:53;5.63;;;1.57;;
13483;SDS011;6814;57.786;12.080;2023-07-13T12:28:20;2.67;;;1.30;;
13483;SDS011;6814;57.786;12.080;2023-07-13T12:30:47;3.10;;;1.47;;
13483;SDS011;6814;57.786;12.080;2023-07-13T12:33:14;3.33;;;1.13;;
13483;SDS011;6814;57.786;12.080;2023-07-13T12:35:43;4.97;;;1.53;;
13483;SDS011;6814;57.786;12.080;2023-07-13T12:38:12;1.50;;;1.40;;
13483;SDS011;6814;57.786;12.080;2023-07-13T12:40:39;3.90;;;1.33;;
13483;SDS011;6814;57.786;12.080;2023-07-13T12:43:10;3.30;;;1.40;;
13483;SDS011;6814;57.786;12.080;2023-07-13T12:45:37;2.47;;;1.10;;
13483;SDS011;6814;57.786;12.080;2023-07-13T12:48:04;3.67;;;1.20;;
13483;SDS011;6814;57.786;12.080;2023-07-13T12:50:36;3.17;;;1.20;;
13483;SDS011;6814;57.786;12.080;2023-07-13T12:53:05;2.67;;;1.30;;
13483;SDS011;6814;57.786;12.080;2023-07-13T12:55:41;2.87;;;1.20;;
13483;SDS011;6814;57.786;12.080;2023-07-13T12:58:10;3.10;;;1.53;;
13483;SDS011;6814;57.786;12.080;2023-07-13T13:00:41;2.60;;;1.20;;
13483;SDS011;6814;57.786;12.080;2023-07-13T13:03:16;5.30;;;1.13;;
13483;SDS011;6814;57.786;12.080;2023-07-13T13:05:48;1.50;;;0.97;;
13483;SDS011;6814;57.786;12.080;2023-07-13T13:08:15;1.87;;;1.10;;
13483;SDS011;6814;57.786;12.080;2023-07-13T13:10:43;2.40;;;1.17;;
13483;SDS011;6814;57.786;12.080;2023-07-13T13:13:10;2.10;;;0.87;;
13483;SDS011;6814;57.786;12.080;2023-07-13T13:15:37;4.07;;;0.93;;
13483;SDS011;6814;57.786;12.080;2023-07-13T13:18:04;5.30;;;1.17;;
13483;SDS011;6814;57.786;12.080;2023-07-13T13:20:34;1.20;;;0.67;;
13483;SDS011;6814;57.786;12.080;2023-07-13T13:23:01;1.93;;;0.90;;
13483;SDS011;6814;57.786;12.080;2023-07-13T13:25:27;2.80;;;1.20;;
13483;SDS011;6814;57.786;12.080;2023-07-13T13:27:56;3.07;;;0.90;;
13483;SDS011;6814;57.786;12.080;2023-07-13T13:30:22;3.97;;;1.10;;
13483;SDS011;6814;57.786;12.080;2023-07-13T13:32:49;3.70;;;0.90;;
13483;SDS011;6814;57.786;12.080;2023-07-13T13:35:16;5.30;;;1.30;;
13483;SDS011;6814;57.786;12.080;2023-07-13T13:37:43;2.60;;;0.80;;
13483;SDS011;6814;57.786;12.080;2023-07-13T13:40:13;3.43;;;1.13;;
13483;SDS011;6814;57.786;12.080;2023-07-13T13:42:43;1.77;;;0.90;;
13483;SDS011;6814;57.786;12.080;2023-07-13T13:45:12;4.17;;;1.10;;
13483;SDS011;6814;57.786;12.080;2023-07-13T13:47:39;3.63;;;1.17;;
13483;SDS011;6814;57.786;12.080;2023-07-13T13:50:11;2.50;;;0.90;;
13483;SDS011;6814;57.786;12.080;2023-07-13T13:52:37;3.50;;;1.07;;
13483;SDS011;6814;57.786;12.080;2023-07-13T13:55:05;4.53;;;1.23;;
13483;SDS011;6814;57.786;12.080;2023-07-13T13:57:37;2.53;;;0.77;;
13483;SDS011;6814;57.786;12.080;2023-07-13T14:00:04;1.77;;;0.80;;
13483;SDS011;6814;57.786;12.080;2023-07-13T14:02:32;2.40;;;0.87;;
13483;SDS011;6814;57.786;12.080;2023-07-13T14:04:59;3.00;;;1.00;;
13483;SDS011;6814;57.786;12.080;2023-07-13T14:07:26;1.63;;;0.77;;
13483;SDS011;6814;57.786;12.080;2023-07-13T14:09:55;1.90;;;1.17;;
13483;SDS011;6814;57.786;12.080;2023-07-13T14:12:22;1.90;;;0.87;;
13483;SDS011;6814;57.786;12.080;2023-07-13T14:14:51;3.60;;;1.30;;
13483;SDS011;6814;57.786;12.080;2023-07-13T14:17:18;2.73;;;0.80;;
13483;SDS011;6814;57.786;12.080;2023-07-13T14:19:48;2.17;;;1.20;;
13483;SDS011;6814;57.786;12.080;2023-07-13T14:22:16;3.00;;;1.00;;
13483;SDS011;6814;57.786;12.080;2023-07-13T14:24:42;3.57;;;1.23;;
13483;SDS011;6814;57.786;12.080;2023-07-13T14:27:16;2.17;;;1.00;;
13483;SDS011;6814;57.786;12.080;2023-07-13T14:29:47;3.47;;;1.20;;
13483;SDS011;6814;57.786;12.080;2023-07-13T14:32:19;2.53;;;1.30;;
13483;SDS011;6814;57.786;12.080;2023-07-13T14:34:47;1.77;;;0.80;;
13483;SDS011;6814;57.786;12.080;2023-07-13T14:37:14;1.77;;;0.97;;
13483;SDS011;6814;57.786;12.080;2023-07-13T14:39:42;2.37;;;1.00;;
13483;SDS011;6814;57.786;12.080;2023-07-13T14:42:09;1.23;;;1.00;;
13483;SDS011;6814;57.786;12.080;2023-07-13T14:44:35;3.23;;;1.10;;
13483;SDS011;6814;57.786;12.080;2023-07-13T14:47:03;2.20;;;1.20;;
13483;SDS011;6814;57.786;12.080;2023-07-13T14:49:31;2.10;;;1.10;;
13483;SDS011;6814;57.786;12.080;2023-07-13T14:52:00;3.13;;;1.10;;
13483;SDS011;6814;57.786;12.080;2023-07-13T14:54:30;3.27;;;1.37;;